Time;durP1;ratioP1;P1;durP2;ratioP2;P2;SDS_P1;SDS_P2;PMS_P1;PMS_P2;Temp;Humidity;BMP_temperature;BMP_pressure;BME280_temperature;BME280_humidity;BME280_pressure;Samples;Min_cycle;Max_cycle;Signal;HPM_P1;HPM_P2
2023/08/29 00:00:28;;;;;;;3.75;3.42;;;11.90;99.90;;;;;;5002831;28;20022;-31
2023/08/29 00:02:53;;;;;;;4.03;3.42;;;12.00;99.90;;;;;;4995737;28;20044;-35
2023/08/29 00:05:19;;;;;;;3.55;3.25;;;12.00;99.90;;;;;;4997710;28;20068;-33
2023/08/29 00:07:46;;;;;;;3.60;3.30;;;12.10;99.90;;;;;;5003217;28;20052;-34
2023/08/29 00:10:12;;;;;;;4.95;3.08;;;12.00;99.90;;;;;;5000769;28;20030;-33
2023/08/29 00:12:38;;;;;;;5.10;3.78;;;12.10;99.90;;;;;;5001713;28;20024;-33
2023/08/29 00:15:05;;;;;;;4.20;3.83;;;12.00;99.90;;;;;;5002529;28;20078;-37
2023/08/29 00:17:31;;;;;;;5.07;4.30;;;12.00;99.90;;;;;;5001128;28;20029;-32
2023/08/29 00:19:56;;;;;;;4.95;4.03;;;12.00;99.90;;;;;;4994897;28;20107;-32
2023/08/29 00:22:22;;;;;;;4.65;4.20;;;11.90;99.90;;;;;;5001838;28;20040;-32
2023/08/29 00:24:52;;;;;;;4.38;3.95;;;11.80;99.90;;;;;;5001095;28;20456;-34
2023/08/29 00:27:19;;;;;;;5.25;3.80;;;11.80;99.90;;;;;;4999878;28;20021;-33
2023/08/29 00:29:45;;;;;;;4.70;4.05;;;11.80;99.90;;;;;;4996396;28;20507;-32
2023/08/29 00:32:11;;;;;;;5.07;3.70;;;11.70;99.90;;;;;;5000402;28;20041;-37
2023/08/29 00:34:37;;;;;;;5.03;3.90;;;11.80;99.90;;;;;;4997977;28;20022;-33
2023/08/29 00:37:03;;;;;;;4.10;3.70;;;11.90;99.90;;;;;;4998787;28;20061;-33
2023/08/29 00:39:28;;;;;;;5.60;4.22;;;11.90;99.90;;;;;;5001812;28;20113;-35
2023/08/29 00:41:54;;;;;;;5.57;4.32;;;12.00;99.90;;;;;;5001165;28;20187;-33
2023/08/29 00:44:20;;;;;;;6.93;3.90;;;12.00;99.90;;;;;;4999535;28;20042;-33
2023/08/29 00:46:46;;;;;;;5.43;3.95;;;12.00;99.90;;;;;;4995732;28;20416;-33
2023/08/29 00:49:16;;;;;;;5.05;4.53;;;12.10;99.90;;;;;;5004429;28;20092;-32
2023/08/29 00:51:42;;;;;;;4.40;3.92;;;12.10;99.90;;;;;;4998238;28;20510;-31
2023/08/29 00:54:08;;;;;;;4.40;4.00;;;12.10;99.90;;;;;;5004394;28;20496;-39
2023/08/29 00:56:35;;;;;;;5.97;4.68;;;12.10;99.90;;;;;;5000160;28;20026;-36
2023/08/29 00:59:02;;;;;;;6.03;4.78;;;12.10;99.90;;;;;;4998708;28;20030;-37
2023/08/29 01:01:30;;;;;;;5.32;4.80;;;12.10;99.90;;;;;;4998212;28;20050;-37
2023/08/29 01:03:56;;;;;;;6.47;4.85;;;12.10;99.90;;;;;;5003467;28;20041;-38
2023/08/29 01:06:23;;;;;;;6.55;5.50;;;12.10;99.90;;;;;;5001418;28;20491;-37
2023/08/29 01:08:49;;;;;;;6.82;5.68;;;12.10;99.90;;;;;;5000638;28;20034;-39
2023/08/29 01:11:28;;;;;;;7.70;5.70;;;12.00;99.90;;;;;;4997993;28;20586;-39
2023/08/29 01:14:05;;;;;;;6.10;5.32;;;12.00;99.90;;;;;;5003591;28;20026;-39
2023/08/29 01:16:43;;;;;;;6.47;5.70;;;11.90;99.90;;;;;;5002962;28;20030;-38
2023/08/29 01:19:13;;;;;;;6.28;5.13;;;12.00;99.90;;;;;;4996837;28;20080;-38
2023/08/29 01:22:26;;;;;;;6.85;5.60;;;11.90;99.90;;;;;;4993633;28;20117;-38
2023/08/29 01:25:17;;;;;;;6.75;5.55;;;11.90;99.90;;;;;;4986998;28;20053;-37
2023/08/29 01:27:44;;;;;;;6.78;5.63;;;11.90;99.90;;;;;;4997948;28;20025;-37
2023/08/29 01:30:10;;;;;;;7.45;5.43;;;11.90;99.90;;;;;;5003159;28;20025;-37
2023/08/29 01:32:37;;;;;;;7.43;5.65;;;11.90;99.90;;;;;;4995854;28;20038;-34
2023/08/29 01:35:02;;;;;;;5.95;5.30;;;11.90;99.90;;;;;;4998677;28;20026;-37
2023/08/29 01:37:28;;;;;;;6.43;5.78;;;11.80;99.90;;;;;;5000153;28;20509;-39
2023/08/29 01:39:54;;;;;;;6.45;5.05;;;11.90;99.90;;;;;;4999985;28;20084;-38
2023/08/29 01:42:19;;;;;;;6.22;5.25;;;11.80;99.90;;;;;;5002280;28;20656;-37
2023/08/29 01:44:45;;;;;;;5.95;5.35;;;11.80;99.90;;;;;;4995822;28;20034;-38
2023/08/29 01:47:10;;;;;;;8.32;6.43;;;11.80;99.90;;;;;;4998835;28;20607;-36
2023/08/29 01:49:37;;;;;;;8.13;5.65;;;11.80;99.90;;;;;;4995301;28;20038;-38
2023/08/29 01:52:02;;;;;;;7.80;5.88;;;11.80;99.90;;;;;;4997370;28;20022;-40
2023/08/29 01:54:28;;;;;;;7.97;6.05;;;11.80;99.90;;;;;;4998572;28;20517;-39
2023/08/29 01:56:56;;;;;;;7.63;6.40;;;11.80;99.90;;;;;;4994304;28;20026;-38
2023/08/29 01:59:25;;;;;;;7.70;6.43;;;11.80;99.90;;;;;;4997260;28;20046;-37
2023/08/29 02:01:51;;;;;;;8.82;7.13;;;11.80;99.90;;;;;;4995269;28;20243;-35
2023/08/29 02:04:17;;;;;;;7.40;6.55;;;11.80;99.90;;;;;;4997407;28;20034;-39
2023/08/29 02:06:43;;;;;;;7.70;6.22;;;11.80;99.90;;;;;;4995003;28;20053;-40
2023/08/29 02:09:08;;;;;;;8.38;6.53;;;11.80;99.90;;;;;;4996674;28;20752;-40
2023/08/29 02:11:34;;;;;;;8.10;6.60;;;11.80;99.90;;;;;;4998919;28;20041;-34
2023/08/29 02:13:59;;;;;;;9.80;7.38;;;11.80;99.90;;;;;;5005041;28;20562;-39
2023/08/29 02:16:25;;;;;;;8.50;6.60;;;11.80;99.90;;;;;;5004376;28;20033;-37
2023/08/29 02:18:53;;;;;;;8.23;6.25;;;11.80;99.90;;;;;;5001403;28;20026;-37
2023/08/29 02:21:19;;;;;;;;;;;11.90;99.90;;;;;;5004739;28;20176;-39
2023/08/29 02:23:46;;;;;;;9.23;6.75;;;11.80;99.90;;;;;;4997346;28;20008;-33
2023/08/29 02:26:12;;;;;;;6.50;5.88;;;11.80;99.90;;;;;;5002087;28;20099;-31
2023/08/29 02:28:39;;;;;;;7.30;5.93;;;11.80;99.90;;;;;;5017769;28;20029;-30
2023/08/29 02:31:07;;;;;;;7.60;6.35;;;11.90;99.90;;;;;;5003791;28;20034;-34
2023/08/29 02:33:35;;;;;;;8.38;5.80;;;11.90;99.90;;;;;;5000665;28;20022;-30
2023/08/29 02:36:04;;;;;;;7.03;5.78;;;11.90;99.90;;;;;;5003547;28;20038;-33
2023/08/29 02:38:31;;;;;;;6.75;6.05;;;11.90;99.90;;;;;;5000318;28;20034;-33
2023/08/29 02:40:57;;;;;;;6.90;5.93;;;11.90;99.90;;;;;;5016310;28;20041;-35
2023/08/29 02:43:23;;;;;;;8.15;6.40;;;11.90;99.90;;;;;;5005291;28;20038;-31
2023/08/29 02:45:50;;;;;;;6.95;6.25;;;11.90;99.90;;;;;;5003308;28;20033;-31
2023/08/29 02:48:16;;;;;;;7.93;6.05;;;11.90;99.90;;;;;;5004565;28;20397;-33
2023/08/29 02:50:42;;;;;;;6.28;5.55;;;11.90;99.90;;;;;;5005814;28;20033;-32
2023/08/29 02:53:09;;;;;;;6.28;5.50;;;11.90;99.90;;;;;;5005916;28;20030;-31
2023/08/29 02:55:35;;;;;;;6.07;5.40;;;11.90;99.90;;;;;;5002469;28;20026;-34
2023/08/29 02:58:02;;;;;;;5.68;5.07;;;11.90;99.90;;;;;;4999319;28;20041;-36
2023/08/29 03:00:29;;;;;;;5.75;4.97;;;11.90;99.90;;;;;;5018702;28;20076;-34
2023/08/29 03:02:55;;;;;;;6.28;4.88;;;11.90;99.90;;;;;;5007262;28;20026;-33
2023/08/29 03:05:21;;;;;;;4.90;4.40;;;11.90;99.90;;;;;;5000102;28;20823;-33
2023/08/29 03:07:47;;;;;;;6.28;4.82;;;11.90;99.90;;;;;;4997987;28;20065;-30
2023/08/29 03:10:13;;;;;;;4.63;4.22;;;11.90;99.90;;;;;;5005196;28;20168;-30
2023/08/29 03:12:38;;;;;;;4.78;4.13;;;12.00;99.90;;;;;;5003153;28;20022;-34
2023/08/29 03:15:04;;;;;;;6.22;4.50;;;11.90;99.90;;;;;;4999302;28;20391;-34
2023/08/29 03:17:30;;;;;;;4.05;3.53;;;11.90;99.90;;;;;;5001772;28;20034;-35
2023/08/29 03:19:55;;;;;;;5.80;4.18;;;11.90;99.90;;;;;;5001568;28;20029;-35
2023/08/29 03:22:21;;;;;;;4.80;4.40;;;11.80;99.90;;;;;;5000224;28;20030;-32
2023/08/29 03:24:47;;;;;;;5.35;4.28;;;11.80;99.90;;;;;;5003010;28;20518;-35
2023/08/29 03:27:13;;;;;;;7.70;5.30;;;11.90;99.90;;;;;;5001619;28;20026;-34
2023/08/29 03:29:40;;;;;;;6.88;4.75;;;11.90;99.90;;;;;;5001145;28;20026;-32
2023/08/29 03:32:06;;;;;;;4.65;4.20;;;11.90;99.90;;;;;;5003612;28;20779;-33
2023/08/29 03:34:31;;;;;;;5.25;4.75;;;11.90;99.90;;;;;;5000087;28;20032;-39
2023/08/29 03:36:57;;;;;;;5.10;4.60;;;12.00;99.90;;;;;;5004643;28;20042;-38
2023/08/29 03:39:22;;;;;;;6.07;4.60;;;12.10;99.90;;;;;;5001104;28;20243;-40
2023/08/29 03:41:48;;;;;;;4.53;4.10;;;12.00;99.90;;;;;;5004637;28;20415;-38
2023/08/29 03:44:13;;;;;;;5.22;4.72;;;12.00;99.90;;;;;;5002361;28;20057;-38
2023/08/29 03:46:39;;;;;;;5.93;5.40;;;12.00;99.90;;;;;;5000824;28;20024;-37
2023/08/29 03:49:05;;;;;;;5.15;4.65;;;11.90;99.90;;;;;;5000791;28;20054;-39
2023/08/29 03:51:30;;;;;;;4.95;4.45;;;12.00;99.90;;;;;;5001886;28;20448;-40
2023/08/29 03:53:56;;;;;;;5.50;4.82;;;12.00;99.90;;;;;;5007569;28;20041;-39
2023/08/29 03:56:21;;;;;;;6.45;4.93;;;12.00;99.90;;;;;;4999785;28;20041;-38
2023/08/29 03:58:49;;;;;;;5.03;4.53;;;12.00;99.90;;;;;;5002702;28;20523;-39
2023/08/29 04:01:14;;;;;;;5.95;4.38;;;12.00;99.90;;;;;;5001917;28;20061;-37
2023/08/29 04:03:40;;;;;;;5.13;4.50;;;12.00;99.90;;;;;;4999672;28;20077;-39
2023/08/29 04:06:06;;;;;;;6.13;4.60;;;12.00;99.90;;;;;;5000485;28;21245;-36
2023/08/29 04:08:32;;;;;;;6.28;4.95;;;12.00;99.90;;;;;;5000629;28;20057;-38
2023/08/29 04:10:58;;;;;;;4.88;4.35;;;12.00;99.90;;;;;;5004002;28;20057;-38
2023/08/29 04:13:24;;;;;;;4.38;3.97;;;12.00;99.90;;;;;;5003405;28;20214;-39
2023/08/29 04:15:50;;;;;;;4.65;4.25;;;12.00;99.90;;;;;;5001167;28;20037;-38
2023/08/29 04:18:15;;;;;;;4.65;4.10;;;12.00;99.90;;;;;;4998060;28;20483;-38
2023/08/29 04:20:43;;;;;;;4.65;4.25;;;12.00;99.90;;;;;;5002675;28;20045;-38
2023/08/29 04:23:10;;;;;;;6.18;4.20;;;12.00;99.90;;;;;;5003595;28;20045;-32
2023/08/29 04:25:37;;;;;;;4.38;3.97;;;12.00;99.90;;;;;;5003210;28;20034;-32
2023/08/29 04:28:04;;;;;;;3.78;3.42;;;12.00;99.90;;;;;;5000748;28;20435;-32
2023/08/29 04:30:30;;;;;;;4.85;4.32;;;12.00;99.90;;;;;;4998883;28;20117;-31
2023/08/29 04:32:56;;;;;;;4.95;4.05;;;12.00;99.90;;;;;;5001284;28;21604;-31
2023/08/29 04:35:22;;;;;;;9.38;4.30;;;12.00;99.90;;;;;;5003637;28;20034;-32
2023/08/29 04:37:49;;;;;;;4.78;4.30;;;12.00;99.90;;;;;;5005865;28;20037;-31
2023/08/29 04:40:17;;;;;;;4.38;3.90;;;12.00;99.90;;;;;;5003323;28;20033;-34
2023/08/29 04:42:43;;;;;;;4.30;3.90;;;12.00;99.90;;;;;;5000121;28;20173;-32
2023/08/29 04:45:10;;;;;;;4.40;3.90;;;12.00;99.90;;;;;;5001483;28;20507;-32
2023/08/29 04:47:37;;;;;;;4.85;3.80;;;12.00;99.90;;;;;;4995117;28;20022;-31
2023/08/29 04:50:03;;;;;;;3.97;3.58;;;12.00;99.90;;;;;;4999631;28;20045;-32
2023/08/29 04:52:28;;;;;;;4.30;3.90;;;12.00;99.90;;;;;;5005346;28;20018;-31
2023/08/29 04:54:55;;;;;;;4.22;3.83;;;12.00;99.90;;;;;;5004099;28;20160;-32
2023/08/29 04:57:21;;;;;;;4.20;3.72;;;12.00;99.90;;;;;;5005345;28;20030;-31
2023/08/29 04:59:48;;;;;;;3.72;3.40;;;12.00;99.90;;;;;;4996921;28;20052;-34
2023/08/29 05:02:15;;;;;;;3.63;3.28;;;12.10;99.90;;;;;;4998318;28;20088;-31
2023/08/29 05:04:42;;;;;;;3.95;3.60;;;12.00;99.90;;;;;;4999493;28;20040;-35
2023/08/29 05:07:09;;;;;;;4.00;3.65;;;12.00;99.90;;;;;;5004864;28;20025;-32
2023/08/29 05:09:35;;;;;;;4.75;3.90;;;12.10;99.90;;;;;;5001063;28;20026;-33
2023/08/29 05:12:01;;;;;;;5.35;4.10;;;12.00;99.90;;;;;;5004112;28;20055;-32
2023/08/29 05:14:27;;;;;;;3.75;3.35;;;12.00;99.90;;;;;;5002978;28;20033;-31
2023/08/29 05:16:53;;;;;;;5.03;3.72;;;12.00;99.90;;;;;;4995422;28;20561;-32
2023/08/29 05:19:19;;;;;;;4.65;3.85;;;12.10;99.90;;;;;;4999527;28;20061;-34
2023/08/29 05:21:44;;;;;;;3.80;3.50;;;12.00;99.90;;;;;;5000481;28;20083;-34
2023/08/29 05:24:10;;;;;;;4.05;3.65;;;12.00;99.90;;;;;;4999394;28;20033;-33
2023/08/29 05:26:36;;;;;;;4.93;3.80;;;12.00;99.90;;;;;;4997063;28;20044;-37
2023/08/29 05:29:01;;;;;;;3.90;3.50;;;12.10;99.90;;;;;;5000740;28;20069;-36
2023/08/29 05:31:27;;;;;;;3.72;3.33;;;12.00;99.90;;;;;;4996790;28;20033;-40
2023/08/29 05:33:52;;;;;;;4.95;3.60;;;12.00;99.90;;;;;;5001962;28;20022;-35
2023/08/29 05:36:18;;;;;;;3.85;3.53;;;12.00;99.90;;;;;;5001172;28;20042;-34
2023/08/29 05:38:44;;;;;;;3.33;3.03;;;12.10;99.90;;;;;;4996436;28;20476;-35
2023/08/29 05:41:10;;;;;;;3.72;3.25;;;12.10;99.90;;;;;;4997915;28;20069;-34
2023/08/29 05:43:36;;;;;;;4.45;2.92;;;12.10;99.90;;;;;;5001334;28;20053;-32
2023/08/29 05:46:02;;;;;;;3.13;2.85;;;12.10;99.90;;;;;;4992629;28;20038;-36
2023/08/29 05:48:28;;;;;;;3.20;2.88;;;12.10;99.90;;;;;;4995825;28;20096;-33
2023/08/29 05:50:53;;;;;;;3.20;2.78;;;12.10;99.90;;;;;;4999330;28;20022;-34
2023/08/29 05:53:20;;;;;;;2.70;2.42;;;12.10;99.90;;;;;;4998264;28;20512;-31
2023/08/29 05:55:47;;;;;;;3.00;2.63;;;12.10;99.90;;;;;;5000630;28;20030;-34
2023/08/29 05:58:13;;;;;;;2.35;2.15;;;12.10;99.90;;;;;;4998176;28;20026;-31
2023/08/29 06:00:39;;;;;;;2.78;2.55;;;12.20;99.90;;;;;;5005375;28;20053;-32
2023/08/29 06:03:09;;;;;;;2.63;2.42;;;12.10;99.90;;;;;;4995956;28;20076;-35
2023/08/29 06:05:36;;;;;;;3.13;2.50;;;12.20;99.90;;;;;;4995151;28;20029;-34
2023/08/29 06:08:03;;;;;;;2.88;2.67;;;12.20;99.90;;;;;;5003696;28;20031;-34
2023/08/29 06:10:29;;;;;;;3.08;2.78;;;12.20;99.90;;;;;;4998741;28;20951;-30
2023/08/29 06:12:55;;;;;;;2.67;2.47;;;12.20;99.90;;;;;;5002423;28;20086;-33
2023/08/29 06:15:22;;;;;;;3.03;2.75;;;12.20;99.90;;;;;;4997219;28;20080;-33
2023/08/29 06:17:48;;;;;;;3.78;2.90;;;12.30;99.90;;;;;;4994280;28;20025;-31
2023/08/29 06:20:14;;;;;;;3.15;2.85;;;12.30;99.90;;;;;;4995353;28;20116;-30
2023/08/29 06:22:40;;;;;;;3.88;3.15;;;12.30;99.90;;;;;;5002683;28;20053;-32
2023/08/29 06:25:06;;;;;;;3.40;3.10;;;12.30;99.90;;;;;;5002256;28;20037;-33
2023/08/29 06:27:33;;;;;;;3.70;3.33;;;12.30;99.90;;;;;;5001018;28;20092;-32
2023/08/29 06:29:59;;;;;;;3.55;3.25;;;12.30;99.90;;;;;;4995578;28;20030;-32
2023/08/29 06:32:25;;;;;;;3.10;2.80;;;12.30;99.90;;;;;;4999076;28;20495;-31
2023/08/29 06:34:51;;;;;;;2.53;2.33;;;12.30;99.90;;;;;;4999599;28;20493;-33
2023/08/29 06:37:17;;;;;;;2.65;2.45;;;12.40;99.90;;;;;;4994541;28;20051;-31
2023/08/29 06:39:42;;;;;;;2.63;2.42;;;12.30;99.90;;;;;;5005880;28;20018;-31
2023/08/29 06:42:08;;;;;;;2.35;2.17;;;12.30;99.90;;;;;;5003401;28;20443;-32
2023/08/29 06:44:34;;;;;;;2.55;2.35;;;12.30;99.90;;;;;;4995137;28;20041;-35
2023/08/29 06:47:00;;;;;;;3.55;2.28;;;12.30;99.90;;;;;;4999912;28;20061;-30
2023/08/29 06:49:26;;;;;;;2.10;2.00;;;12.30;99.90;;;;;;5016200;28;20503;-32
2023/08/29 06:51:52;;;;;;;2.35;1.92;;;12.30;99.90;;;;;;5002962;28;20041;-30
2023/08/29 06:54:18;;;;;;;2.05;1.90;;;12.30;99.90;;;;;;5003893;28;20030;-34
2023/08/29 06:56:44;;;;;;;1.90;1.80;;;12.30;99.90;;;;;;5010904;28;20402;-31
2023/08/29 06:59:11;;;;;;;2.10;1.90;;;12.30;99.90;;;;;;5000230;28;20111;-33
2023/08/29 07:01:37;;;;;;;1.88;1.77;;;12.30;99.90;;;;;;5002472;28;21044;-32
2023/08/29 07:04:04;;;;;;;1.90;1.80;;;12.30;99.90;;;;;;5006552;28;20030;-33
2023/08/29 07:06:30;;;;;;;2.75;2.10;;;12.40;99.90;;;;;;5002690;28;20034;-32
2023/08/29 07:08:56;;;;;;;1.88;1.77;;;12.40;99.90;;;;;;5004363;28;20535;-31
2023/08/29 07:11:22;;;;;;;1.77;1.65;;;12.40;99.90;;;;;;5004492;28;20026;-31
2023/08/29 07:13:49;;;;;;;2.13;1.90;;;12.50;99.90;;;;;;5002085;28;20682;-31
2023/08/29 07:16:15;;;;;;;2.00;1.90;;;12.50;99.90;;;;;;5000936;28;20568;-34
2023/08/29 07:18:40;;;;;;;2.88;2.67;;;12.50;99.90;;;;;;5000295;28;20040;-30
2023/08/29 07:21:07;;;;;;;2.63;1.85;;;12.50;99.90;;;;;;5006179;28;20034;-30
2023/08/29 07:23:33;;;;;;;1.80;1.70;;;12.50;99.90;;;;;;5000718;28;20046;-31
2023/08/29 07:25:59;;;;;;;2.45;1.85;;;12.50;99.90;;;;;;5006898;28;20034;-31
2023/08/29 07:28:25;;;;;;;2.63;1.90;;;12.50;99.90;;;;;;5003525;28;20018;-34
2023/08/29 07:30:51;;;;;;;1.80;1.70;;;12.50;99.90;;;;;;5005092;28;20169;-30
2023/08/29 07:33:17;;;;;;;2.10;2.00;;;12.50;99.90;;;;;;5003879;28;20026;-34
2023/08/29 07:35:45;;;;;;;1.77;1.67;;;12.50;99.90;;;;;;4998411;28;20034;-31
2023/08/29 07:38:12;;;;;;;1.90;1.80;;;12.60;99.90;;;;;;5002893;28;20131;-32
2023/08/29 07:40:38;;;;;;;1.73;1.60;;;12.60;99.90;;;;;;5003707;28;20625;-33
2023/08/29 07:43:05;;;;;;;2.22;2.03;;;12.60;99.90;;;;;;5003202;28;20475;-34
2023/08/29 07:45:31;;;;;;;1.80;1.70;;;12.60;99.90;;;;;;5004317;28;20044;-31
2023/08/29 07:47:58;;;;;;;2.20;1.80;;;12.50;99.90;;;;;;4999656;28;20033;-30
2023/08/29 07:50:23;;;;;;;1.85;1.75;;;12.60;99.90;;;;;;5004641;28;20030;-33
2023/08/29 07:52:49;;;;;;;1.52;1.42;;;12.60;99.90;;;;;;5004642;28;20033;-36
2023/08/29 07:55:15;;;;;;;1.60;1.50;;;12.60;99.90;;;;;;5002738;28;20109;-33
2023/08/29 07:57:40;;;;;;;1.70;1.60;;;12.60;99.90;;;;;;4996357;28;20803;-32
2023/08/29 08:00:09;;;;;;;1.75;1.58;;;12.60;99.90;;;;;;5003371;28;20479;-36
2023/08/29 08:02:38;;;;;;;1.83;1.50;;;12.70;99.90;;;;;;4995034;28;20034;-35
2023/08/29 08:05:08;;;;;;;1.42;1.40;;;12.70;99.90;;;;;;4999217;28;20033;-32
2023/08/29 08:07:34;;;;;;;1.90;1.67;;;12.70;99.90;;;;;;4996987;28;20026;-32
2023/08/29 08:10:00;;;;;;;1.80;1.70;;;12.80;99.90;;;;;;5002158;28;20029;-33
2023/08/29 08:12:25;;;;;;;1.85;1.48;;;12.80;99.90;;;;;;4999750;28;20029;-39
2023/08/29 08:14:52;;;;;;;1.90;1.70;;;12.70;99.90;;;;;;5000126;28;20867;-37
2023/08/29 08:17:18;;;;;;;2.10;1.75;;;12.80;99.90;;;;;;5005154;28;20038;-40
2023/08/29 08:19:44;;;;;;;1.80;1.70;;;12.80;99.90;;;;;;4998640;28;20034;-39
2023/08/29 08:22:10;;;;;;;1.60;1.50;;;12.90;99.90;;;;;;5002814;28;20526;-36
2023/08/29 08:24:36;;;;;;;1.63;1.52;;;12.90;99.90;;;;;;4998848;28;20026;-39
2023/08/29 08:27:01;;;;;;;1.70;1.60;;;12.80;99.90;;;;;;5001906;28;20054;-37
2023/08/29 08:29:27;;;;;;;1.60;1.50;;;12.80;99.90;;;;;;4996108;28;20436;-39
2023/08/29 08:31:53;;;;;;;1.70;1.60;;;12.90;99.90;;;;;;4993284;28;20160;-40
2023/08/29 08:34:18;;;;;;;1.60;1.50;;;12.80;99.90;;;;;;4999089;28;20165;-38
2023/08/29 08:36:44;;;;;;;2.13;1.50;;;12.80;99.90;;;;;;4997531;28;20042;-38
2023/08/29 08:39:10;;;;;;;1.73;1.60;;;12.80;99.90;;;;;;5002058;28;20034;-39
2023/08/29 08:41:37;;;;;;;1.80;1.70;;;12.80;99.90;;;;;;5000699;28;20037;-40
2023/08/29 08:44:08;;;;;;;1.83;1.65;;;12.90;99.90;;;;;;4999787;28;20151;-39
2023/08/29 08:46:34;;;;;;;2.28;1.80;;;12.90;99.90;;;;;;4998713;28;20036;-38
2023/08/29 08:49:01;;;;;;;1.67;1.58;;;12.90;99.90;;;;;;4994422;28;20095;-39
2023/08/29 08:51:29;;;;;;;1.48;1.38;;;12.90;99.90;;;;;;4999824;28;20034;-40
2023/08/29 08:53:55;;;;;;;1.45;1.35;;;12.90;99.90;;;;;;4998927;28;20684;-37
2023/08/29 08:56:22;;;;;;;1.52;1.42;;;12.90;99.90;;;;;;4993579;28;20050;-38
2023/08/29 08:58:48;;;;;;;1.65;1.55;;;12.90;99.90;;;;;;4999879;28;20043;-39
2023/08/29 09:01:14;;;;;;;1.60;1.50;;;12.90;99.90;;;;;;4997633;28;20633;-37
2023/08/29 09:03:42;;;;;;;1.60;1.38;;;12.90;99.90;;;;;;5004574;28;20120;-31
2023/08/29 09:06:10;;;;;;;1.33;1.23;;;12.90;99.90;;;;;;5001341;28;20042;-32
2023/08/29 09:08:37;;;;;;;1.50;1.40;;;12.90;99.90;;;;;;5000650;28;20030;-30
2023/08/29 09:11:04;;;;;;;1.42;1.33;;;12.90;99.90;;;;;;4998694;28;20079;-31
2023/08/29 09:13:34;;;;;;;1.45;1.40;;;13.00;99.90;;;;;;5001071;28;20022;-32
2023/08/29 09:16:01;;;;;;;1.60;1.50;;;13.00;99.90;;;;;;5017098;28;20472;-31
2023/08/29 09:18:31;;;;;;;1.45;1.35;;;13.00;99.90;;;;;;4998360;28;20048;-31
2023/08/29 09:21:00;;;;;;;1.08;1.08;;;13.00;99.90;;;;;;5001906;28;20515;-31
2023/08/29 09:23:28;;;;;;;1.35;1.30;;;13.00;99.90;;;;;;4999489;28;20022;-35
2023/08/29 09:25:55;;;;;;;1.13;1.13;;;13.10;99.90;;;;;;4993047;28;20033;-38
2023/08/29 09:28:28;;;;;;;1.23;1.20;;;13.10;99.90;;;;;;4999829;28;20037;-38
2023/08/29 09:30:54;;;;;;;1.50;1.40;;;13.10;99.90;;;;;;4997476;28;20524;-35
2023/08/29 09:33:21;;;;;;;1.20;1.20;;;13.10;99.90;;;;;;4998635;28;20071;-37
2023/08/29 09:35:50;;;;;;;1.42;1.35;;;13.20;99.90;;;;;;4999464;28;20432;-41
2023/08/29 09:38:18;;;;;;;1.40;1.30;;;13.20;99.90;;;;;;4997639;28;20034;-36
2023/08/29 09:40:48;;;;;;;1.40;1.30;;;13.30;99.90;;;;;;4995558;28;20503;-41
2023/08/29 09:43:15;;;;;;;1.30;1.20;;;13.30;99.90;;;;;;5000304;28;20030;-39
2023/08/29 09:45:41;;;;;;;1.20;1.20;;;13.30;99.90;;;;;;5000860;28;20455;-38
2023/08/29 09:48:08;;;;;;;1.40;1.30;;;13.30;99.90;;;;;;4995003;28;20080;-40
2023/08/29 09:50:35;;;;;;;1.38;1.20;;;13.40;99.90;;;;;;5000342;28;20061;-41
2023/08/29 09:53:02;;;;;;;0.90;0.90;;;13.40;99.90;;;;;;4997388;28;20029;-39
2023/08/29 09:55:36;;;;;;;1.10;1.10;;;13.20;99.90;;;;;;4994234;28;20034;-39
2023/08/29 09:58:04;;;;;;;1.10;1.10;;;13.20;99.90;;;;;;5001857;28;20042;-37
2023/08/29 10:00:31;;;;;;;1.58;1.17;;;13.10;99.90;;;;;;4998728;28;20022;-38
2023/08/29 10:02:58;;;;;;;1.02;1.02;;;13.20;99.90;;;;;;5003604;28;20037;-38
2023/08/29 10:05:32;;;;;;;1.05;1.05;;;13.20;99.90;;;;;;4999235;28;20038;-40
2023/08/29 10:08:18;;;;;;;1.10;1.10;;;13.20;99.90;;;;;;4999471;28;20026;-39
2023/08/29 10:10:44;;;;;;;1.00;1.00;;;13.10;99.90;;;;;;4996615;28;20468;-38
2023/08/29 10:13:11;;;;;;;1.15;0.90;;;13.20;99.90;;;;;;5004280;28;20022;-31
2023/08/29 10:15:41;;;;;;;1.10;1.10;;;13.10;99.90;;;;;;5000970;28;20571;-31
2023/08/29 10:18:07;;;;;;;0.82;0.82;;;13.10;99.90;;;;;;4999320;28;20291;-32
2023/08/29 10:20:34;;;;;;;0.93;0.93;;;13.10;99.90;;;;;;5003213;28;20076;-32
2023/08/29 10:23:01;;;;;;;0.95;0.95;;;13.20;99.90;;;;;;4997970;28;20057;-30
2023/08/29 10:25:28;;;;;;;1.10;1.10;;;13.20;99.90;;;;;;5000042;28;20061;-32
2023/08/29 10:27:54;;;;;;;1.85;1.05;;;13.30;99.90;;;;;;4997753;28;20392;-31
2023/08/29 10:30:23;;;;;;;0.80;0.80;;;13.30;99.90;;;;;;5001253;28;20058;-32
2023/08/29 10:32:49;;;;;;;1.40;0.90;;;13.30;99.90;;;;;;5001104;28;20765;-32
2023/08/29 10:35:19;;;;;;;0.93;0.93;;;13.30;99.90;;;;;;5002633;28;20088;-35
2023/08/29 10:37:49;;;;;;;3.10;1.00;;;13.40;99.90;;;;;;5002667;28;20061;-35
2023/08/29 10:40:15;;;;;;;2.35;0.93;;;13.40;99.90;;;;;;5001342;28;20300;-32
2023/08/29 10:42:54;;;;;;;0.80;0.80;;;13.40;99.90;;;;;;5004143;28;20109;-34
2023/08/29 10:45:21;;;;;;;0.80;0.80;;;13.40;99.90;;;;;;5019332;28;20033;-34
2023/08/29 10:47:47;;;;;;;0.82;0.82;;;13.50;99.90;;;;;;5005059;28;20072;-32
2023/08/29 10:50:22;;;;;;;1.48;1.00;;;13.50;99.90;;;;;;4999452;28;20108;-32
2023/08/29 10:52:53;;;;;;;2.63;0.95;;;13.60;99.90;;;;;;5004948;28;20033;-37
2023/08/29 10:55:24;;;;;;;0.63;0.63;;;13.60;99.90;;;;;;5000872;28;20041;-34
2023/08/29 10:57:51;;;;;;;0.80;0.80;;;13.60;99.90;;;;;;5000650;28;20030;-34
2023/08/29 11:00:51;;;;;;;0.70;0.70;;;13.60;99.90;;;;;;5000601;28;20026;-33
2023/08/29 11:03:36;;;;;;;0.80;0.80;;;13.60;99.90;;;;;;5001580;28;20037;-34
2023/08/29 11:06:02;;;;;;;0.70;0.70;;;13.70;99.90;;;;;;4998384;28;20033;-34
2023/08/29 11:08:28;;;;;;;0.68;0.68;;;13.70;99.90;;;;;;5000074;28;20088;-32
2023/08/29 11:11:14;;;;;;;0.93;0.93;;;13.80;99.90;;;;;;5000751;28;20038;-32
2023/08/29 11:13:56;;;;;;;0.60;0.60;;;13.80;99.90;;;;;;5001828;28;20118;-35
2023/08/29 11:16:21;;;;;;;1.27;0.90;;;13.90;99.90;;;;;;4999762;28;20396;-33
2023/08/29 11:18:57;;;;;;;0.60;0.60;;;13.90;99.90;;;;;;5000203;28;20097;-34
2023/08/29 11:21:24;;;;;;;0.98;0.98;;;13.80;99.90;;;;;;5017809;28;20080;-34
2023/08/29 11:23:50;;;;;;;0.80;0.80;;;13.80;99.90;;;;;;5002584;28;20030;-38
2023/08/29 11:26:16;;;;;;;0.85;0.85;;;13.70;99.90;;;;;;4996587;28;20049;-39
2023/08/29 11:28:43;;;;;;;0.98;0.98;;;13.70;99.90;;;;;;4997272;28;20033;-39
2023/08/29 11:31:09;;;;;;;1.10;1.00;;;13.60;99.90;;;;;;5017580;28;20384;-39
2023/08/29 11:33:36;;;;;;;1.08;1.08;;;13.60;99.90;;;;;;4998071;28;20030;-38
2023/08/29 11:36:04;;;;;;;0.82;0.82;;;13.60;99.90;;;;;;5003896;28;20375;-37
2023/08/29 11:38:30;;;;;;;;;;;13.60;99.90;;;;;;5000548;28;20044;-39
2023/08/29 11:40:57;;;;;;;0.90;0.90;;;13.70;99.90;;;;;;5004109;28;19944;-36
2023/08/29 11:43:24;;;;;;;1.17;1.08;;;13.80;99.90;;;;;;5001522;28;20022;-40
2023/08/29 11:45:53;;;;;;;0.80;0.80;;;13.90;99.90;;;;;;5000660;28;20033;-41
2023/08/29 11:48:26;;;;;;;1.30;1.20;;;14.00;99.90;;;;;;4996345;28;20030;-35
2023/08/29 11:50:56;;;;;;;1.00;1.00;;;14.00;99.90;;;;;;5001665;28;20022;-35
2023/08/29 11:53:33;;;;;;;0.80;0.80;;;14.10;99.90;;;;;;4999547;28;20196;-35
2023/08/29 11:56:00;;;;;;;1.08;1.08;;;14.10;99.90;;;;;;4997709;28;20041;-36
2023/08/29 11:58:28;;;;;;;0.80;0.80;;;14.10;99.90;;;;;;5003258;28;20083;-36
2023/08/29 12:00:54;;;;;;;0.90;0.90;;;14.20;99.90;;;;;;5000515;28;20045;-40
2023/08/29 12:03:27;;;;;;;0.90;0.77;;;14.20;99.90;;;;;;5002556;28;20635;-38
2023/08/29 12:05:59;;;;;;;0.90;0.90;;;14.20;99.90;;;;;;5000999;28;20044;-40
2023/08/29 12:08:40;;;;;;;0.90;0.90;;;14.10;99.90;;;;;;5000040;28;20080;-38
2023/08/29 12:11:06;;;;;;;0.95;0.95;;;13.90;99.90;;;;;;5002357;28;20021;-40
2023/08/29 12:13:34;;;;;;;1.08;1.00;;;13.80;99.90;;;;;;5002983;28;20116;-35
2023/08/29 12:16:00;;;;;;;1.08;1.08;;;13.80;99.90;;;;;;5000939;28;20116;-38
2023/08/29 12:18:26;;;;;;;1.10;1.10;;;13.80;99.90;;;;;;5003660;28;20137;-35
2023/08/29 12:21:08;;;;;;;1.48;1.10;;;13.80;99.90;;;;;;4997885;28;20569;-37
2023/08/29 12:23:33;;;;;;;0.80;0.80;;;13.80;99.90;;;;;;5002755;28;20026;-37
2023/08/29 12:25:59;;;;;;;1.00;0.85;;;13.80;99.90;;;;;;5001362;28;20034;-40
2023/08/29 12:28:25;;;;;;;0.80;0.80;;;13.90;99.90;;;;;;4998690;28;20037;-38
2023/08/29 12:30:54;;;;;;;0.90;0.90;;;14.00;99.90;;;;;;5002447;28;21539;-38
2023/08/29 12:33:21;;;;;;;0.93;0.93;;;13.90;99.90;;;;;;5000043;28;20025;-37
2023/08/29 12:35:46;;;;;;;0.90;0.90;;;13.90;99.90;;;;;;4997745;28;20649;-36
2023/08/29 12:38:12;;;;;;;0.80;0.80;;;13.80;99.90;;;;;;5001551;28;20046;-39
2023/08/29 12:40:37;;;;;;;0.95;0.95;;;13.90;99.90;;;;;;5002107;28;20496;-38
2023/08/29 12:43:05;;;;;;;0.80;0.80;;;14.00;99.90;;;;;;5002016;28;20096;-37
2023/08/29 12:45:31;;;;;;;0.70;0.70;;;14.10;99.90;;;;;;5001376;28;20475;-36
2023/08/29 12:47:57;;;;;;;1.13;1.02;;;14.00;99.90;;;;;;4996520;28;20038;-38